createdAt,value
2019-03-01T00:00:03.858Z,0.00
2019-03-01T00:01:02.847Z,0.00
2019-03-01T00:02:02.829Z,0.00
2019-03-01T00:03:02.805Z,0.00
2019-03-01T00:04:02.805Z,0.00
2019-03-01T00:05:03.367Z,0.00
2019-03-01T00:06:02.750Z,0.00
2019-03-01T00:07:02.727Z,0.00
2019-03-01T00:08:02.713Z,0.00
2019-03-01T00:09:02.695Z,0.00
2019-03-01T00:10:02.685Z,0.00
2019-03-01T00:11:02.667Z,0.00
2019-03-01T00:12:02.627Z,0.00
2019-03-01T00:13:02.615Z,0.00
2019-03-01T00:14:02.588Z,0.00
2019-03-01T00:15:02.572Z,0.00
2019-03-01T00:16:02.563Z,0.00
2019-03-01T00:17:02.550Z,0.00
2019-03-01T00:18:02.517Z,0.00
2019-03-01T00:19:02.493Z,0.00
2019-03-01T00:20:02.474Z,0.00
2019-03-01T00:21:02.459Z,0.00
2019-03-01T00:22:02.438Z,0.00
2019-03-01T00:23:02.438Z,0.00
2019-03-01T00:24:02.394Z,0.00
2019-03-01T00:25:02.377Z,0.00
2019-03-01T00:26:02.363Z,0.00
2019-03-01T00:27:02.331Z,0.00
2019-03-01T00:28:02.315Z,0.00
2019-03-01T00:29:02.313Z,0.00
2019-03-01T00:30:02.281Z,0.00
2019-03-01T00:31:02.257Z,0.00
2019-03-01T00:32:02.239Z,0.00
2019-03-01T00:33:02.247Z,0.00
2019-03-01T00:34:02.206Z,0.00
2019-03-01T00:35:02.184Z,0.00
2019-03-01T00:36:02.160Z,0.00
2019-03-01T00:37:02.140Z,0.00
2019-03-01T00:38:02.119Z,0.00
2019-03-01T00:39:02.120Z,0.00
2019-03-01T00:40:02.090Z,0.00
2019-03-01T00:41:02.072Z,0.00
2019-03-01T00:42:02.061Z,0.00
2019-03-01T00:43:02.028Z,0.00
2019-03-01T00:44:02.006Z,0.00
2019-03-01T00:45:02.009Z,0.00
2019-03-01T00:46:01.994Z,0.00
2019-03-01T00:47:01.945Z,0.00
2019-03-01T00:48:01.923Z,0.00
2019-03-01T00:49:01.905Z,0.00
2019-03-01T00:50:01.904Z,0.00
2019-03-01T00:51:01.866Z,0.00
2019-03-01T00:52:01.862Z,0.00
2019-03-01T00:53:01.830Z,0.00
2019-03-01T00:54:01.808Z,0.00
2019-03-01T00:55:01.786Z,0.00
2019-03-01T00:56:01.769Z,0.00
2019-03-01T00:57:01.766Z,0.00
2019-03-01T00:58:01.746Z,0.00
2019-03-01T00:59:01.708Z,0.00
2019-03-01T01:00:01.685Z,0.00
2019-03-01T01:01:01.670Z,0.00
2019-03-01T01:02:01.651Z,0.00
2019-03-01T01:03:01.652Z,0.00
2019-03-01T01:04:01.611Z,0.00
2019-03-01T01:05:01.589Z,0.00
2019-03-01T01:06:01.576Z,0.00
2019-03-01T01:07:01.556Z,0.00
2019-03-01T01:08:01.549Z,0.00
2019-03-01T01:09:02.346Z,0.00
2019-03-01T01:10:01.583Z,0.00
2019-03-01T01:11:01.471Z,0.00
2019-03-01T01:12:02.396Z,0.00
2019-03-01T01:13:01.446Z,0.00
2019-03-01T01:14:01.431Z,0.00
2019-03-01T01:15:01.395Z,0.00
2019-03-01T01:16:01.372Z,0.00
2019-03-01T01:17:01.355Z,0.00
2019-03-01T01:18:01.338Z,0.00
2019-03-01T01:19:01.338Z,0.00
2019-03-01T01:20:01.310Z,0.00
2019-03-01T01:21:01.279Z,0.00
2019-03-01T01:22:01.259Z,0.00
2019-03-01T01:23:01.239Z,0.00
2019-03-01T01:24:01.221Z,0.00
2019-03-01T01:25:01.218Z,0.00
2019-03-01T01:26:01.177Z,0.00
2019-03-01T01:27:01.157Z,0.00
2019-03-01T01:28:01.144Z,0.00
2019-03-01T01:29:01.153Z,0.00
2019-03-01T01:30:01.106Z,0.00
2019-03-01T01:31:01.094Z,0.00
2019-03-01T01:32:01.062Z,0.00
2019-03-01T01:33:01.039Z,0.00
2019-03-01T01:34:01.019Z,0.00
2019-03-01T01:35:01.022Z,0.00
2019-03-01T01:36:00.983Z,0.00
2019-03-01T01:37:00.961Z,0.00
2019-03-01T01:38:00.945Z,0.00
2019-03-01T01:39:00.923Z,0.00
2019-03-01T01:40:00.929Z,0.00
2019-03-01T01:41:00.903Z,0.00
2019-03-01T01:42:00.868Z,0.00
2019-03-01T01:43:00.864Z,0.00
2019-03-01T01:44:00.824Z,0.00
2019-03-01T01:45:00.808Z,0.00
2019-03-01T01:46:00.802Z,0.00
2019-03-01T01:47:00.789Z,0.00
2019-03-01T01:48:00.743Z,0.00
2019-03-01T01:49:00.726Z,0.00
2019-03-01T01:50:00.709Z,0.00
2019-03-01T01:51:00.687Z,0.00
2019-03-01T01:52:00.693Z,0.00
2019-03-01T01:53:00.651Z,0.00
2019-03-01T01:54:00.629Z,0.00
2019-03-01T01:55:00.625Z,0.00
2019-03-01T01:56:00.588Z,0.00
2019-03-01T01:57:00.567Z,0.00
2019-03-01T01:58:00.549Z,0.00
2019-03-01T01:59:00.530Z,0.00
2019-03-01T02:00:00.530Z,0.00
2019-03-01T02:01:00.509Z,0.00
2019-03-01T02:02:01.394Z,0.00
2019-03-01T02:03:01.353Z,0.00
2019-03-01T02:04:00.436Z,0.00
2019-03-01T02:05:00.411Z,0.00
2019-03-01T02:06:00.411Z,0.00
2019-03-01T02:07:00.929Z,0.00
2019-03-01T02:08:00.348Z,0.00
2019-03-01T02:09:00.334Z,0.00
2019-03-01T02:10:00.361Z,0.00
2019-03-01T02:11:00.295Z,0.00
2019-03-01T02:12:00.292Z,0.00
2019-03-01T02:13:00.250Z,0.00
2019-03-01T02:14:00.235Z,0.00
2019-03-01T02:15:00.325Z,0.00
2019-03-01T02:16:00.199Z,0.00
2019-03-01T02:17:00.189Z,0.00
2019-03-01T02:18:00.151Z,0.00
2019-03-01T02:19:00.140Z,0.00
2019-03-01T02:20:00.287Z,0.00
2019-03-01T02:21:00.092Z,0.00
2019-03-01T02:22:00.097Z,0.00
2019-03-01T02:23:00.057Z,0.00
2019-03-01T02:24:00.035Z,0.00
2019-03-01T02:25:00.017Z,0.00
2019-03-01T02:25:59.996Z,0.00
2019-03-01T02:26:59.977Z,0.00
2019-03-01T02:27:59.973Z,0.00
2019-03-01T02:28:59.960Z,0.00
2019-03-01T02:29:59.919Z,0.00
2019-03-01T02:30:59.899Z,0.00
2019-03-01T02:31:59.882Z,0.00
2019-03-01T02:32:59.857Z,0.00
2019-03-01T02:33:59.864Z,0.00
2019-03-01T02:34:59.824Z,0.00
2019-03-01T02:35:59.824Z,0.00
2019-03-01T02:36:59.784Z,0.00
2019-03-01T02:38:00.862Z,0.00
2019-03-01T02:38:59.744Z,0.00
2019-03-01T02:39:59.726Z,0.00
2019-03-01T02:40:59.722Z,0.00
2019-03-01T02:41:59.691Z,0.00
2019-03-01T02:42:59.680Z,0.00
2019-03-01T02:43:59.645Z,0.00
2019-03-01T02:44:59.626Z,0.00
2019-03-01T02:45:59.604Z,0.00
2019-03-01T02:46:59.582Z,0.00
2019-03-01T02:47:59.580Z,0.00
2019-03-01T02:48:59.551Z,0.00
2019-03-01T02:49:59.526Z,0.00
2019-03-01T02:50:59.511Z,0.00
2019-03-01T02:51:59.487Z,0.00
2019-03-01T02:52:59.482Z,0.00
2019-03-01T02:54:00.362Z,0.00
2019-03-01T02:54:59.430Z,0.00
2019-03-01T02:55:59.420Z,0.00
2019-03-01T02:56:59.403Z,0.00
2019-03-01T02:57:59.373Z,0.00
2019-03-01T02:58:59.346Z,0.00
2019-03-01T02:59:59.346Z,0.00
2019-03-01T03:00:59.316Z,0.00
2019-03-01T03:01:59.305Z,0.00
2019-03-01T03:02:59.264Z,0.00
2019-03-01T03:03:59.250Z,0.00
2019-03-01T03:04:59.227Z,0.00
2019-03-01T03:05:59.230Z,0.00
2019-03-01T03:06:59.186Z,0.00
2019-03-01T03:07:59.171Z,0.00
2019-03-01T03:08:59.150Z,0.00
2019-03-01T03:09:59.134Z,0.00
2019-03-01T03:10:59.134Z,0.00
2019-03-01T03:11:59.090Z,0.00
2019-03-01T03:12:59.079Z,0.00
2019-03-01T03:13:59.864Z,0.00
2019-03-01T03:14:59.034Z,0.00
2019-03-01T03:15:59.014Z,0.00
2019-03-01T03:16:59.951Z,0.00
2019-03-01T03:17:58.974Z,0.00
2019-03-01T03:18:59.908Z,0.00
2019-03-01T03:19:58.938Z,0.00
2019-03-01T03:20:58.918Z,0.00
2019-03-01T03:21:59.404Z,0.00
2019-03-01T03:22:58.887Z,0.00
2019-03-01T03:23:59.384Z,0.00
2019-03-01T03:24:58.833Z,0.00
2019-03-01T03:25:58.813Z,0.00
2019-03-01T03:26:58.828Z,0.00
2019-03-01T03:27:58.793Z,0.00
2019-03-01T03:28:59.407Z,0.00
2019-03-01T03:29:58.775Z,0.00
2019-03-01T03:30:58.719Z,0.00
2019-03-01T03:31:58.781Z,0.00
2019-03-01T03:32:58.689Z,0.00
2019-03-01T03:33:58.685Z,0.00
2019-03-01T03:34:58.658Z,0.00
2019-03-01T03:35:58.616Z,0.00
2019-03-01T03:36:58.602Z,0.00
2019-03-01T03:37:58.585Z,0.00
2019-03-01T03:38:58.587Z,0.00
2019-03-01T03:39:58.543Z,0.00
2019-03-01T03:40:58.525Z,0.00
2019-03-01T03:41:59.376Z,0.00
2019-03-01T03:42:58.481Z,0.00
2019-03-01T03:43:58.465Z,0.00
2019-03-01T03:44:58.458Z,0.00
2019-03-01T03:45:58.440Z,0.00
2019-03-01T03:46:58.415Z,0.00
2019-03-01T03:47:58.396Z,0.00
2019-03-01T03:48:58.386Z,0.00
2019-03-01T03:49:58.357Z,0.00
2019-03-01T03:50:58.328Z,0.00
2019-03-01T03:51:58.324Z,0.00
2019-03-01T03:52:58.327Z,0.00
2019-03-01T03:53:58.272Z,0.00
2019-03-01T03:54:58.942Z,0.00
2019-03-01T03:55:58.238Z,0.00
2019-03-01T03:56:58.231Z,0.00
2019-03-01T03:57:58.191Z,0.00
2019-03-01T03:58:58.170Z,0.00
2019-03-01T03:59:58.147Z,0.00
2019-03-01T04:00:58.142Z,0.00
2019-03-01T04:01:58.219Z,0.00
2019-03-01T04:02:58.106Z,0.00
2019-03-01T04:03:58.082Z,0.00
2019-03-01T04:04:58.056Z,0.00
2019-03-01T04:05:58.037Z,0.00
2019-03-01T04:06:58.013Z,0.00
2019-03-01T04:07:58.009Z,0.00
2019-03-01T04:08:58.010Z,0.00
2019-03-01T04:09:57.958Z,0.00
2019-03-01T04:10:57.936Z,0.00
2019-03-01T04:11:57.937Z,0.00
2019-03-01T04:12:57.900Z,0.00
2019-03-01T04:13:57.906Z,0.00
2019-03-01T04:14:57.856Z,0.00
2019-03-01T04:15:58.445Z,0.00
2019-03-01T04:16:57.816Z,0.00
2019-03-01T04:17:57.818Z,0.00
2019-03-01T04:18:57.782Z,0.00
2019-03-01T04:19:57.761Z,0.00
2019-03-01T04:20:57.750Z,0.00
2019-03-01T04:21:57.737Z,0.00
2019-03-01T04:22:57.701Z,0.00
2019-03-01T04:23:57.691Z,0.00
2019-03-01T04:24:57.684Z,0.00
2019-03-01T04:25:57.645Z,0.00
2019-03-01T04:26:57.628Z,0.00
2019-03-01T04:27:57.606Z,0.00
2019-03-01T04:28:57.585Z,0.00
2019-03-01T04:29:57.612Z,0.00
2019-03-01T04:30:57.553Z,0.00
2019-03-01T04:31:57.527Z,0.00
2019-03-01T04:32:57.518Z,0.00
2019-03-01T04:33:57.494Z,0.00
2019-03-01T04:34:57.472Z,0.00
2019-03-01T04:35:57.466Z,0.00
2019-03-01T04:36:57.430Z,0.00
2019-03-01T04:37:57.420Z,0.00
2019-03-01T04:38:57.388Z,0.00
2019-03-01T04:39:57.373Z,0.00
2019-03-01T04:40:57.432Z,0.00
2019-03-01T04:41:58.379Z,0.00
2019-03-01T04:42:57.317Z,0.00
2019-03-01T04:43:57.301Z,0.00
2019-03-01T04:44:57.272Z,0.00
2019-03-01T04:45:57.261Z,0.00
2019-03-01T04:46:57.262Z,0.00
2019-03-01T04:47:57.233Z,0.00
2019-03-01T04:48:57.202Z,0.00
2019-03-01T04:49:57.175Z,0.00
2019-03-01T04:50:57.158Z,0.00
2019-03-01T04:51:57.897Z,0.00
2019-03-01T04:52:57.127Z,0.00
2019-03-01T04:53:57.109Z,0.00
2019-03-01T04:54:57.079Z,0.00
2019-03-01T04:55:57.063Z,0.00
2019-03-01T04:56:57.044Z,0.00
2019-03-01T04:57:57.038Z,0.00
2019-03-01T04:58:57.001Z,0.00
2019-03-01T04:59:56.982Z,0.00
2019-03-01T05:00:56.968Z,0.00
2019-03-01T05:01:56.945Z,0.00
2019-03-01T05:02:56.944Z,0.00
2019-03-01T05:03:56.906Z,0.00
2019-03-01T05:04:56.892Z,0.00
2019-03-01T05:05:56.884Z,0.00
2019-03-01T05:06:56.849Z,0.00
2019-03-01T05:07:56.899Z,0.00
2019-03-01T05:08:56.807Z,0.00
2019-03-01T05:09:56.790Z,0.00
2019-03-01T05:10:56.802Z,0.00
2019-03-01T05:11:57.424Z,0.00
2019-03-01T05:12:56.728Z,0.00
2019-03-01T05:13:56.719Z,0.00
2019-03-01T05:14:57.385Z,0.00
2019-03-01T05:15:56.711Z,0.00
2019-03-01T05:16:56.656Z,0.00
2019-03-01T05:17:56.649Z,0.00
2019-03-01T05:18:56.629Z,0.00
2019-03-01T05:19:56.594Z,0.00
2019-03-01T05:20:56.592Z,0.00
2019-03-01T05:21:56.555Z,0.00
2019-03-01T05:22:56.533Z,0.00
2019-03-01T05:23:56.519Z,0.00
2019-03-01T05:24:56.494Z,0.00
2019-03-01T05:25:56.497Z,0.00
2019-03-01T05:26:56.457Z,0.00
2019-03-01T05:27:56.438Z,0.00
2019-03-01T05:28:56.423Z,0.00
2019-03-01T05:29:56.403Z,0.00
2019-03-01T05:30:56.382Z,0.00
2019-03-01T05:31:56.378Z,0.00
2019-03-01T05:32:56.887Z,0.00
2019-03-01T05:33:56.319Z,0.00
2019-03-01T05:34:56.303Z,0.00
2019-03-01T05:35:56.292Z,0.00
2019-03-01T05:36:56.276Z,0.00
2019-03-01T05:37:56.263Z,0.00
2019-03-01T05:38:56.232Z,0.00
2019-03-01T05:39:56.204Z,0.00
2019-03-01T05:40:56.187Z,0.00
2019-03-01T05:41:56.195Z,0.00
2019-03-01T05:42:56.166Z,0.00
2019-03-01T05:43:56.126Z,0.00
2019-03-01T05:44:56.110Z,0.00
2019-03-01T05:45:56.092Z,0.00
2019-03-01T05:46:56.073Z,0.00
2019-03-01T05:47:56.057Z,0.00
2019-03-01T05:48:56.048Z,0.00
2019-03-01T05:49:56.012Z,0.00
2019-03-01T05:50:55.993Z,0.00
2019-03-01T05:51:55.974Z,0.00
2019-03-01T05:52:55.956Z,0.00
2019-03-01T05:53:55.948Z,0.00
2019-03-01T05:54:55.914Z,0.00
2019-03-01T05:55:55.899Z,0.00
2019-03-01T05:56:55.881Z,0.00
2019-03-01T05:57:55.864Z,0.00
2019-03-01T05:58:56.892Z,0.00
2019-03-01T05:59:55.821Z,0.00
2019-03-01T06:00:55.795Z,4.00
2019-03-01T06:01:55.782Z,0.00
2019-03-01T06:02:55.767Z,0.00
2019-03-01T06:03:55.740Z,4.00
2019-03-01T06:04:55.746Z,4.00
2019-03-01T06:05:55.701Z,4.00
2019-03-01T06:06:55.680Z,4.00
2019-03-01T06:07:55.662Z,4.00
2019-03-01T06:08:55.654Z,8.00
2019-03-01T06:09:55.651Z,4.00
2019-03-01T06:10:55.620Z,4.00
2019-03-01T06:11:55.579Z,8.00
2019-03-01T06:12:55.563Z,8.00
2019-03-01T06:13:55.538Z,12.00
2019-03-01T06:14:55.524Z,16.00
2019-03-01T06:15:55.507Z,20.00
2019-03-01T06:16:55.498Z,16.00
2019-03-01T06:17:55.465Z,20.00
2019-03-01T06:18:55.442Z,28.00
2019-03-01T06:19:55.427Z,28.00
2019-03-01T06:20:55.406Z,32.00
2019-03-01T06:21:55.403Z,36.00
2019-03-01T06:22:55.368Z,48.00
2019-03-01T06:23:55.919Z,52.00
2019-03-01T06:24:55.330Z,56.00
2019-03-01T06:25:55.310Z,56.00
2019-03-01T06:26:55.286Z,52.00
2019-03-01T06:27:55.270Z,56.00
2019-03-01T06:28:55.262Z,52.00
2019-03-01T06:29:55.249Z,48.00
2019-03-01T06:30:55.210Z,44.00
2019-03-01T06:31:55.193Z,48.00
2019-03-01T06:32:55.166Z,52.00
2019-03-01T06:33:55.150Z,52.00
2019-03-01T06:34:55.145Z,60.00
2019-03-01T06:35:55.111Z,60.00
2019-03-01T06:36:55.114Z,68.00
2019-03-01T06:37:55.096Z,68.00
2019-03-01T06:38:55.051Z,68.00
2019-03-01T06:39:55.195Z,72.00
2019-03-01T06:40:55.016Z,64.00
2019-03-01T06:41:54.994Z,64.00
2019-03-01T06:42:54.998Z,80.00
2019-03-01T06:43:54.956Z,84.00
2019-03-01T06:44:54.945Z,92.00
2019-03-01T06:45:54.929Z,96.00
2019-03-01T06:46:55.400Z,96.00
2019-03-01T06:47:54.894Z,100.00
2019-03-01T06:48:54.864Z,124.00
2019-03-01T06:49:54.836Z,140.00
2019-03-01T06:50:55.417Z,140.00
2019-03-01T06:51:54.800Z,144.00
2019-03-01T06:52:54.796Z,160.00
2019-03-01T06:53:54.765Z,176.00
2019-03-01T06:54:54.739Z,172.00
2019-03-01T06:55:56.407Z,164.00
2019-03-01T06:56:54.702Z,180.00
2019-03-01T06:57:54.689Z,248.00
2019-03-01T06:58:54.686Z,304.00
2019-03-01T06:59:54.646Z,312.00
2019-03-01T07:00:54.624Z,312.00
2019-03-01T07:01:54.626Z,320.00
2019-03-01T07:02:54.645Z,344.00
2019-03-01T07:03:56.451Z,384.00
2019-03-01T07:04:54.551Z,384.00
2019-03-01T07:06:02.983Z,320.00
2019-03-01T07:06:54.512Z,400.00
2019-03-01T07:07:54.511Z,468.00
2019-03-01T07:08:54.472Z,444.00
2019-03-01T07:09:54.463Z,472.00
2019-03-01T07:10:55.406Z,504.00
2019-03-01T07:11:54.415Z,528.00
2019-03-01T07:12:54.392Z,476.00
2019-03-01T07:13:55.406Z,476.00
2019-03-01T07:14:54.904Z,520.00
2019-03-01T07:15:54.351Z,544.00
2019-03-01T07:16:54.315Z,592.00
2019-03-01T07:17:54.294Z,632.00
2019-03-01T07:18:54.284Z,648.00
2019-03-01T07:19:54.258Z,676.00
2019-03-01T07:20:54.235Z,616.00
2019-03-01T07:21:54.243Z,672.00
2019-03-01T07:22:54.231Z,748.00
2019-03-01T07:23:54.977Z,748.00
2019-03-01T07:24:54.171Z,616.00
2019-03-01T07:25:54.915Z,676.00
2019-03-01T07:26:54.185Z,548.00
2019-03-01T07:27:54.103Z,552.00
2019-03-01T07:28:54.133Z,544.00
2019-03-01T07:29:54.060Z,556.00
2019-03-01T07:30:54.053Z,416.00
2019-03-01T07:31:54.052Z,392.00
2019-03-01T07:32:54.005Z,292.00
2019-03-01T07:33:53.983Z,304.00
2019-03-01T07:34:54.006Z,316.00
2019-03-01T07:35:53.942Z,352.00
2019-03-01T07:36:53.925Z,436.00
2019-03-01T07:37:53.906Z,364.00
2019-03-01T07:38:53.883Z,372.00
2019-03-01T07:39:53.883Z,388.00
2019-03-01T07:40:53.870Z,564.00
2019-03-01T07:41:53.828Z,768.00
2019-03-01T07:42:53.808Z,912.00
2019-03-01T07:43:53.790Z,1224.00
2019-03-01T07:44:53.768Z,1532.00
2019-03-01T07:45:53.770Z,1612.00
2019-03-01T07:46:54.393Z,1524.00
2019-03-01T07:47:53.713Z,1252.00
2019-03-01T07:48:53.689Z,1204.00
2019-03-01T07:49:53.670Z,1240.00
2019-03-01T07:50:55.278Z,1172.00
2019-03-01T07:51:53.655Z,772.00
2019-03-01T07:52:53.615Z,528.00
2019-03-01T07:55:39.894Z,1048.00
2019-03-01T07:56:40.719Z,1432.00
2019-03-01T07:57:39.839Z,1768.00
2019-03-01T07:58:39.841Z,1612.00
2019-03-01T07:59:39.806Z,1208.00
2019-03-01T08:00:39.780Z,1020.00
2019-03-01T08:01:39.758Z,920.00
2019-03-01T08:02:40.721Z,840.00
2019-03-01T08:03:39.721Z,768.00
2019-03-01T08:04:39.718Z,704.00
2019-03-01T08:05:40.466Z,692.00
2019-03-01T08:06:39.662Z,752.00
2019-03-01T08:07:39.645Z,700.00
2019-03-01T08:08:40.087Z,644.00
2019-03-01T08:09:41.261Z,624.00
2019-03-01T08:10:39.611Z,636.00
2019-03-01T08:11:39.572Z,600.00
2019-03-01T08:12:42.571Z,624.00
2019-03-01T08:13:39.525Z,632.00
2019-03-01T08:14:39.529Z,656.00
2019-03-01T08:15:40.741Z,664.00
2019-03-01T08:16:39.464Z,648.00
2019-03-01T08:17:39.454Z,720.00
2019-03-01T08:18:40.094Z,756.00
2019-03-01T08:19:39.407Z,772.00
2019-03-01T08:20:39.410Z,768.00
2019-03-01T08:21:42.814Z,748.00
2019-03-01T08:22:47.866Z,736.00
2019-03-01T08:25:23.426Z,740.00
2019-03-01T08:26:21.383Z,748.00
2019-03-01T08:27:21.366Z,800.00
2019-03-01T08:28:22.090Z,844.00
2019-03-01T08:29:21.315Z,980.00
2019-03-01T08:30:21.290Z,1156.00
2019-03-01T08:31:22.264Z,1288.00
2019-03-01T08:32:21.247Z,1232.00
2019-03-01T08:33:22.917Z,1272.00
2019-03-01T08:34:21.218Z,1216.00
2019-03-01T08:35:21.194Z,1252.00
2019-03-01T08:36:21.168Z,1432.00
2019-03-01T08:37:21.164Z,1328.00
2019-03-01T08:38:21.125Z,1092.00
2019-03-01T08:39:21.105Z,952.00
2019-03-01T08:40:21.087Z,780.00
2019-03-01T08:41:21.583Z,780.00
2019-03-01T08:42:21.053Z,896.00
2019-03-01T08:43:21.535Z,916.00
2019-03-01T08:44:23.139Z,892.00
2019-03-01T08:45:21.080Z,836.00
2019-03-01T08:46:21.083Z,768.00
2019-03-01T08:47:24.519Z,748.00
2019-03-01T08:48:21.024Z,724.00
2019-03-01T08:49:20.927Z,700.00
2019-03-01T08:50:20.887Z,648.00
2019-03-01T08:51:22.789Z,568.00
2019-03-01T08:52:20.844Z,552.00
2019-03-01T08:53:20.842Z,580.00
2019-03-01T08:54:22.814Z,580.00
2019-03-01T08:55:20.790Z,548.00
2019-03-01T08:56:26.267Z,496.00
2019-03-01T08:57:22.525Z,524.00
2019-03-01T08:58:20.723Z,516.00
2019-03-01T08:59:20.702Z,540.00
2019-03-01T09:00:23.236Z,720.00
2019-03-01T09:01:20.662Z,636.00
2019-03-01T09:02:20.644Z,736.00
2019-03-01T09:03:22.221Z,884.00
2019-03-01T09:04:21.651Z,808.00
2019-03-01T09:05:20.584Z,692.00
2019-03-01T09:06:20.562Z,756.00
2019-03-01T09:07:20.544Z,684.00
2019-03-01T09:08:20.547Z,684.00
2019-03-01T09:09:20.894Z,668.00
2019-03-01T09:10:20.499Z,568.00
2019-03-01T09:11:20.465Z,588.00
2019-03-01T09:12:20.446Z,556.00
2019-03-01T09:13:20.446Z,616.00
2019-03-01T09:14:22.660Z,672.00
2019-03-01T09:15:20.380Z,588.00
2019-03-01T09:16:20.388Z,600.00
2019-03-01T09:17:20.346Z,540.00
2019-03-01T09:18:20.327Z,560.00
2019-03-01T09:19:22.282Z,568.00
2019-03-01T09:20:20.301Z,584.00
2019-03-01T09:21:20.276Z,644.00
2019-03-01T09:22:20.244Z,704.00
2019-03-01T09:23:25.219Z,736.00
2019-03-01T09:24:20.295Z,672.00
2019-03-01T09:25:20.178Z,684.00
2019-03-01T09:26:20.773Z,700.00
2019-03-01T09:27:20.142Z,700.00
2019-03-01T09:28:20.124Z,808.00
2019-03-01T09:29:20.110Z,852.00
2019-03-01T09:30:20.081Z,940.00
2019-03-01T09:31:20.070Z,876.00
2019-03-01T09:32:20.054Z,884.00
2019-03-01T09:33:21.193Z,900.00
2019-03-01T09:34:19.994Z,956.00
2019-03-01T09:35:19.987Z,920.00
2019-03-01T09:36:21.388Z,952.00
2019-03-01T09:37:19.942Z,1008.00
2019-03-01T09:38:19.918Z,1128.00
2019-03-01T09:39:19.904Z,1188.00
2019-03-01T09:40:19.874Z,1216.00
2019-03-01T09:41:19.915Z,1288.00
2019-03-01T09:42:19.867Z,1508.00
2019-03-01T09:43:19.825Z,1488.00
2019-03-01T09:44:19.797Z,1376.00
2019-03-01T09:45:19.782Z,1268.00
2019-03-01T09:46:20.922Z,1284.00
2019-03-01T09:47:19.737Z,1232.00
2019-03-01T09:48:19.716Z,1364.00
2019-03-01T09:49:21.383Z,1340.00
2019-03-01T09:50:19.675Z,1396.00
2019-03-01T09:51:20.476Z,1456.00
2019-03-01T09:52:20.406Z,1576.00
2019-03-01T09:53:19.670Z,1388.00
2019-03-01T09:54:19.605Z,1356.00
2019-03-01T09:55:19.580Z,1460.00
2019-03-01T09:56:19.566Z,1532.00
2019-03-01T09:57:19.536Z,1436.00
2019-03-01T09:58:19.580Z,1664.00
2019-03-01T09:59:19.491Z,1528.00
2019-03-01T10:00:19.481Z,1436.00
2019-03-01T10:01:19.456Z,1532.00
2019-03-01T10:02:19.443Z,1360.00
2019-03-01T10:03:19.417Z,1208.00
2019-03-01T10:04:19.418Z,1168.00
2019-03-01T10:05:19.387Z,1084.00
2019-03-01T10:06:19.356Z,1112.00
2019-03-01T10:07:19.354Z,1084.00
2019-03-01T10:08:19.323Z,1004.00
2019-03-01T10:09:19.321Z,1180.00
2019-03-01T10:10:19.281Z,1020.00
2019-03-01T10:11:19.256Z,920.00
2019-03-01T10:12:19.233Z,1044.00
2019-03-01T10:13:19.236Z,872.00
2019-03-01T10:14:20.369Z,760.00
2019-03-01T10:15:19.177Z,648.00
2019-03-01T10:16:19.163Z,616.00
2019-03-01T10:17:19.145Z,592.00
2019-03-01T10:18:19.120Z,772.00
2019-03-01T10:19:19.107Z,904.00
2019-03-01T10:20:19.080Z,1052.00
2019-03-01T10:21:19.063Z,1204.00
2019-03-01T10:22:19.039Z,1168.00
2019-03-01T10:23:19.026Z,1224.00
2019-03-01T10:24:18.998Z,1092.00
2019-03-01T10:25:18.999Z,948.00
2019-03-01T10:26:18.964Z,840.00
2019-03-01T10:27:18.946Z,892.00
2019-03-01T10:28:18.921Z,1172.00
2019-03-01T10:29:18.908Z,1904.00
2019-03-01T10:30:18.877Z,2332.00
2019-03-01T10:31:18.874Z,2044.00
2019-03-01T10:32:18.835Z,2164.00
2019-03-01T10:33:18.818Z,2716.00
2019-03-01T10:34:18.795Z,2792.00
2019-03-01T10:35:18.804Z,2648.00
2019-03-01T10:36:18.766Z,2508.00
2019-03-01T10:37:18.737Z,2508.00
2019-03-01T10:38:18.771Z,2264.00
2019-03-01T10:39:18.701Z,2056.00
2019-03-01T10:40:18.697Z,2000.00
2019-03-01T10:41:18.658Z,2120.00
2019-03-01T10:42:18.651Z,2176.00
2019-03-01T10:43:18.630Z,1996.00
2019-03-01T10:44:18.598Z,1852.00
2019-03-01T10:45:18.580Z,1728.00
2019-03-01T10:46:18.590Z,1600.00
2019-03-01T10:47:18.550Z,1496.00
2019-03-01T10:48:18.537Z,1352.00
2019-03-01T10:49:18.497Z,1236.00
2019-03-01T10:50:18.498Z,1288.00
2019-03-01T10:51:18.461Z,1508.00
2019-03-01T10:52:18.438Z,1516.00
2019-03-01T10:53:18.425Z,1832.00
2019-03-01T10:54:18.402Z,1640.00
2019-03-01T10:55:18.394Z,1468.00
2019-03-01T10:56:18.374Z,1412.00
2019-03-01T10:57:18.337Z,1252.00
2019-03-01T10:58:18.325Z,1236.00
2019-03-01T10:59:18.332Z,1428.00
2019-03-01T11:00:18.274Z,1648.00
2019-03-01T11:01:18.282Z,1776.00
2019-03-01T11:02:18.240Z,1960.00
2019-03-01T11:03:18.241Z,2248.00
2019-03-01T11:04:18.941Z,1656.00
2019-03-01T11:05:18.180Z,2068.00
2019-03-01T11:06:18.164Z,2192.00
2019-03-01T11:07:18.142Z,1976.00
2019-03-01T11:08:18.139Z,2028.00
2019-03-01T11:09:18.102Z,2172.00
2019-03-01T11:10:18.083Z,2504.00
2019-03-01T11:11:18.068Z,2348.00
2019-03-01T11:12:18.040Z,2204.00
2019-03-01T11:13:18.026Z,2244.00
2019-03-01T11:14:18.019Z,2376.00
2019-03-01T11:15:17.987Z,2180.00
2019-03-01T11:16:17.978Z,2112.00
2019-03-01T11:17:17.958Z,2152.00
2019-03-01T11:18:17.924Z,2168.00
2019-03-01T11:19:17.928Z,2484.00
2019-03-01T11:20:17.887Z,2116.00
2019-03-01T11:21:17.861Z,1896.00
2019-03-01T11:22:17.866Z,2052.00
2019-03-01T11:23:17.831Z,2332.00
2019-03-01T11:24:17.820Z,2048.00
2019-03-01T11:25:17.803Z,2088.00
2019-03-01T11:26:17.767Z,2200.00
2019-03-01T11:27:17.749Z,2128.00
2019-03-01T11:28:17.750Z,2204.00
2019-03-01T11:29:19.446Z,2204.00
2019-03-01T11:30:17.691Z,2548.00
2019-03-01T11:31:17.685Z,2532.00
2019-03-01T11:32:17.646Z,2192.00
2019-03-01T11:33:17.630Z,2292.00
2019-03-01T11:34:17.606Z,1920.00
2019-03-01T11:35:17.601Z,1868.00
2019-03-01T11:36:17.583Z,1752.00
2019-03-01T11:37:17.549Z,1684.00
2019-03-01T11:38:17.533Z,1524.00
2019-03-01T11:39:17.512Z,1496.00
2019-03-01T11:40:17.490Z,1572.00
2019-03-01T11:41:17.511Z,1440.00
2019-03-01T11:42:17.466Z,1288.00
2019-03-01T11:43:17.427Z,1220.00
2019-03-01T11:44:17.409Z,1172.00
2019-03-01T11:45:17.992Z,1232.00
2019-03-01T11:46:17.380Z,1164.00
2019-03-01T11:47:17.375Z,1216.00
2019-03-01T11:48:17.334Z,1540.00
2019-03-01T11:49:17.315Z,1292.00
2019-03-01T11:50:17.302Z,1308.00
2019-03-01T11:51:17.273Z,1168.00
2019-03-01T11:52:17.251Z,1080.00
2019-03-01T11:53:17.994Z,1408.00
2019-03-01T11:54:17.216Z,1252.00
2019-03-01T11:55:17.205Z,1100.00
2019-03-01T11:56:17.183Z,1452.00
2019-03-01T11:57:17.153Z,1488.00
2019-03-01T11:58:17.137Z,1368.00
2019-03-01T11:59:17.127Z,1228.00
2019-03-01T12:00:17.093Z,1092.00
2019-03-01T12:01:17.614Z,1116.00
2019-03-01T12:02:17.063Z,1288.00
2019-03-01T12:03:17.034Z,1168.00
2019-03-01T12:04:17.014Z,1200.00
2019-03-01T12:05:17.018Z,1232.00
2019-03-01T12:06:16.970Z,1036.00
2019-03-01T12:07:16.965Z,992.00
2019-03-01T12:08:16.930Z,1160.00
2019-03-01T12:09:16.918Z,1056.00
2019-03-01T12:10:16.900Z,1176.00
2019-03-01T12:11:16.895Z,1076.00
2019-03-01T12:12:16.873Z,1124.00
2019-03-01T12:13:16.834Z,1320.00
2019-03-01T12:14:16.826Z,936.00
2019-03-01T12:15:16.790Z,1228.00
2019-03-01T12:16:16.789Z,1148.00
2019-03-01T12:17:16.794Z,1036.00
2019-03-01T12:18:16.728Z,1236.00
2019-03-01T12:19:16.712Z,1096.00
2019-03-01T12:20:16.698Z,1192.00
2019-03-01T12:21:16.700Z,1304.00
2019-03-01T12:22:17.425Z,1072.00
2019-03-01T12:23:16.635Z,1228.00
2019-03-01T12:24:16.613Z,824.00
2019-03-01T12:25:16.606Z,752.00
2019-03-01T12:26:16.580Z,840.00
2019-03-01T12:27:16.593Z,832.00
2019-03-01T12:28:16.570Z,828.00
2019-03-01T12:29:16.521Z,920.00
2019-03-01T12:30:16.494Z,896.00
2019-03-01T12:31:16.485Z,720.00
2019-03-01T12:32:16.482Z,660.00
2019-03-01T12:33:16.452Z,688.00
2019-03-01T12:34:16.424Z,776.00
2019-03-01T12:35:16.406Z,872.00
2019-03-01T12:36:16.372Z,772.00
2019-03-01T12:37:18.957Z,796.00
2019-03-01T12:38:16.332Z,788.00
2019-03-01T12:39:16.313Z,796.00
2019-03-01T12:40:16.323Z,792.00
2019-03-01T12:41:16.277Z,788.00
2019-03-01T12:42:16.255Z,800.00
2019-03-01T12:43:16.234Z,760.00
2019-03-01T12:44:16.216Z,816.00
2019-03-01T12:45:16.189Z,800.00
2019-03-01T12:46:16.198Z,804.00
2019-03-01T12:47:16.152Z,808.00
2019-03-01T12:48:16.133Z,844.00
2019-03-01T12:49:16.110Z,860.00
2019-03-01T12:50:16.117Z,924.00